sensor_id;sensor_type;location;lat;lon;timestamp;P1;durP1;ratioP1;P2;durP2;ratioP2
19329;SDS011;9799;48.214;16.388;2024-03-06T00:02:21;41.70;;;28.40;;
19329;SDS011;9799;48.214;16.388;2024-03-06T00:05:42;43.37;;;29.23;;
19329;SDS011;9799;48.214;16.388;2024-03-06T00:09:04;42.67;;;28.87;;
19329;SDS011;9799;48.214;16.388;2024-03-06T00:12:27;41.60;;;29.47;;
19329;SDS011;9799;48.214;16.388;2024-03-06T00:15:49;45.90;;;29.77;;
19329;SDS011;9799;48.214;16.388;2024-03-06T00:19:11;43.50;;;30.33;;
19329;SDS011;9799;48.214;16.388;2024-03-06T00:22:33;45.03;;;30.53;;
19329;SDS011;9799;48.214;16.388;2024-03-06T00:25:55;42.83;;;29.80;;
19329;SDS011;9799;48.214;16.388;2024-03-06T00:29:16;40.27;;;28.13;;
19329;SDS011;9799;48.214;16.388;2024-03-06T00:32:37;43.57;;;30.30;;
19329;SDS011;9799;48.214;16.388;2024-03-06T00:35:59;39.73;;;28.80;;
19329;SDS011;9799;48.214;16.388;2024-03-06T00:39:21;47.37;;;29.27;;
19329;SDS011;9799;48.214;16.388;2024-03-06T00:42:42;42.07;;;28.97;;
19329;SDS011;9799;48.214;16.388;2024-03-06T00:46:03;40.50;;;29.93;;
19329;SDS011;9799;48.214;16.388;2024-03-06T00:49:24;47.77;;;28.87;;
19329;SDS011;9799;48.214;16.388;2024-03-06T00:52:47;46.00;;;29.77;;
19329;SDS011;9799;48.214;16.388;2024-03-06T00:56:08;49.63;;;30.23;;
19329;SDS011;9799;48.214;16.388;2024-03-06T00:59:29;39.73;;;28.70;;
19329;SDS011;9799;48.214;16.388;2024-03-06T01:02:50;45.07;;;29.37;;
19329;SDS011;9799;48.214;16.388;2024-03-06T01:06:12;40.80;;;29.57;;
19329;SDS011;9799;48.214;16.388;2024-03-06T01:09:34;39.90;;;29.30;;
19329;SDS011;9799;48.214;16.388;2024-03-06T01:12:55;42.57;;;29.43;;
19329;SDS011;9799;48.214;16.388;2024-03-06T01:16:16;42.50;;;27.77;;
19329;SDS011;9799;48.214;16.388;2024-03-06T01:19:38;45.70;;;30.97;;
19329;SDS011;9799;48.214;16.388;2024-03-06T01:22:59;38.80;;;28.23;;
19329;SDS011;9799;48.214;16.388;2024-03-06T01:26:22;43.23;;;29.47;;
19329;SDS011;9799;48.214;16.388;2024-03-06T01:29:43;37.23;;;26.37;;
19329;SDS011;9799;48.214;16.388;2024-03-06T01:33:04;47.80;;;30.40;;
19329;SDS011;9799;48.214;16.388;2024-03-06T01:36:25;41.47;;;27.47;;
19329;SDS011;9799;48.214;16.388;2024-03-06T01:39:46;39.53;;;29.07;;
19329;SDS011;9799;48.214;16.388;2024-03-06T01:43:17;41.23;;;28.50;;
19329;SDS011;9799;48.214;16.388;2024-03-06T01:46:40;42.10;;;28.50;;
19329;SDS011;9799;48.214;16.388;2024-03-06T01:50:01;47.57;;;30.40;;
19329;SDS011;9799;48.214;16.388;2024-03-06T01:53:26;41.30;;;28.60;;
19329;SDS011;9799;48.214;16.388;2024-03-06T01:56:49;44.70;;;29.67;;
19329;SDS011;9799;48.214;16.388;2024-03-06T02:00:13;44.73;;;29.70;;
19329;SDS011;9799;48.214;16.388;2024-03-06T02:03:36;48.33;;;30.33;;
19329;SDS011;9799;48.214;16.388;2024-03-06T02:06:57;42.03;;;26.83;;
19329;SDS011;9799;48.214;16.388;2024-03-06T02:10:18;44.03;;;28.57;;
19329;SDS011;9799;48.214;16.388;2024-03-06T02:13:39;42.67;;;29.10;;
19329;SDS011;9799;48.214;16.388;2024-03-06T02:17:02;41.43;;;28.57;;
19329;SDS011;9799;48.214;16.388;2024-03-06T02:20:25;40.67;;;30.00;;
19329;SDS011;9799;48.214;16.388;2024-03-06T02:23:46;45.60;;;29.63;;
19329;SDS011;9799;48.214;16.388;2024-03-06T02:27:07;47.33;;;30.27;;
19329;SDS011;9799;48.214;16.388;2024-03-06T02:30:28;43.67;;;29.90;;
19329;SDS011;9799;48.214;16.388;2024-03-06T02:33:50;40.97;;;29.77;;
19329;SDS011;9799;48.214;16.388;2024-03-06T02:37:12;45.30;;;30.33;;
19329;SDS011;9799;48.214;16.388;2024-03-06T02:40:33;40.57;;;28.67;;
19329;SDS011;9799;48.214;16.388;2024-03-06T02:43:54;44.43;;;30.40;;
19329;SDS011;9799;48.214;16.388;2024-03-06T02:47:15;50.70;;;29.67;;
19329;SDS011;9799;48.214;16.388;2024-03-06T02:50:36;41.43;;;29.50;;
19329;SDS011;9799;48.214;16.388;2024-03-06T02:53:59;48.30;;;31.60;;
19329;SDS011;9799;48.214;16.388;2024-03-06T02:57:20;44.50;;;31.20;;
19329;SDS011;9799;48.214;16.388;2024-03-06T03:00:41;45.43;;;30.00;;
19329;SDS011;9799;48.214;16.388;2024-03-06T03:04:03;40.57;;;28.53;;
19329;SDS011;9799;48.214;16.388;2024-03-06T03:07:26;43.33;;;30.30;;
19329;SDS011;9799;48.214;16.388;2024-03-06T03:10:49;42.10;;;29.87;;
19329;SDS011;9799;48.214;16.388;2024-03-06T03:14:10;44.23;;;29.13;;
19329;SDS011;9799;48.214;16.388;2024-03-06T03:17:31;45.27;;;30.60;;
19329;SDS011;9799;48.214;16.388;2024-03-06T03:20:53;44.57;;;29.97;;
19329;SDS011;9799;48.214;16.388;2024-03-06T03:24:14;49.30;;;30.90;;
19329;SDS011;9799;48.214;16.388;2024-03-06T03:27:38;47.70;;;31.00;;
19329;SDS011;9799;48.214;16.388;2024-03-06T03:31:00;45.40;;;30.87;;
19329;SDS011;9799;48.214;16.388;2024-03-06T03:34:22;47.83;;;32.27;;
19329;SDS011;9799;48.214;16.388;2024-03-06T03:37:43;49.43;;;32.67;;
19329;SDS011;9799;48.214;16.388;2024-03-06T03:41:06;50.93;;;30.63;;
19329;SDS011;9799;48.214;16.388;2024-03-06T03:44:29;43.57;;;29.63;;
19329;SDS011;9799;48.214;16.388;2024-03-06T03:47:51;49.17;;;33.13;;
19329;SDS011;9799;48.214;16.388;2024-03-06T03:51:12;48.40;;;31.57;;
19329;SDS011;9799;48.214;16.388;2024-03-06T03:54:33;51.67;;;31.93;;
19329;SDS011;9799;48.214;16.388;2024-03-06T03:57:55;45.23;;;30.53;;
19329;SDS011;9799;48.214;16.388;2024-03-06T04:01:17;52.47;;;32.60;;
19329;SDS011;9799;48.214;16.388;2024-03-06T04:04:39;60.83;;;32.83;;
19329;SDS011;9799;48.214;16.388;2024-03-06T04:08:00;55.27;;;32.33;;
19329;SDS011;9799;48.214;16.388;2024-03-06T04:11:21;51.13;;;31.30;;
19329;SDS011;9799;48.214;16.388;2024-03-06T04:14:43;49.63;;;31.20;;
19329;SDS011;9799;48.214;16.388;2024-03-06T04:18:06;47.47;;;30.40;;
19329;SDS011;9799;48.214;16.388;2024-03-06T04:21:28;44.57;;;30.43;;
19329;SDS011;9799;48.214;16.388;2024-03-06T04:24:49;44.93;;;30.97;;
19329;SDS011;9799;48.214;16.388;2024-03-06T04:28:11;49.20;;;30.30;;
19329;SDS011;9799;48.214;16.388;2024-03-06T04:31:32;44.63;;;28.93;;
19329;SDS011;9799;48.214;16.388;2024-03-06T04:34:55;42.27;;;29.27;;
19329;SDS011;9799;48.214;16.388;2024-03-06T04:38:16;42.47;;;28.53;;
19329;SDS011;9799;48.214;16.388;2024-03-06T04:41:38;48.23;;;29.27;;
19329;SDS011;9799;48.214;16.388;2024-03-06T04:44:59;42.00;;;27.50;;
19329;SDS011;9799;48.214;16.388;2024-03-06T04:48:20;41.20;;;27.30;;
19329;SDS011;9799;48.214;16.388;2024-03-06T04:51:43;42.13;;;27.23;;
19329;SDS011;9799;48.214;16.388;2024-03-06T04:55:05;41.07;;;27.17;;
19329;SDS011;9799;48.214;16.388;2024-03-06T04:58:26;44.83;;;26.57;;
19329;SDS011;9799;48.214;16.388;2024-03-06T05:01:47;43.07;;;26.87;;
19329;SDS011;9799;48.214;16.388;2024-03-06T05:05:08;37.17;;;26.40;;
19329;SDS011;9799;48.214;16.388;2024-03-06T05:08:31;37.67;;;26.17;;
19329;SDS011;9799;48.214;16.388;2024-03-06T05:11:53;39.33;;;25.00;;
19329;SDS011;9799;48.214;16.388;2024-03-06T05:15:14;39.23;;;25.37;;
19329;SDS011;9799;48.214;16.388;2024-03-06T05:18:35;37.53;;;24.73;;
19329;SDS011;9799;48.214;16.388;2024-03-06T05:21:57;36.87;;;25.97;;
19329;SDS011;9799;48.214;16.388;2024-03-06T05:25:19;37.47;;;24.87;;
19329;SDS011;9799;48.214;16.388;2024-03-06T05:28:40;37.67;;;25.37;;
19329;SDS011;9799;48.214;16.388;2024-03-06T05:32:02;35.27;;;24.47;;
19329;SDS011;9799;48.214;16.388;2024-03-06T05:35:24;36.27;;;23.53;;
19329;SDS011;9799;48.214;16.388;2024-03-06T05:38:45;37.67;;;25.80;;
19329;SDS011;9799;48.214;16.388;2024-03-06T05:42:09;34.20;;;23.43;;
19329;SDS011;9799;48.214;16.388;2024-03-06T05:45:30;34.67;;;24.00;;
19329;SDS011;9799;48.214;16.388;2024-03-06T05:48:52;31.20;;;21.07;;
19329;SDS011;9799;48.214;16.388;2024-03-06T05:52:13;38.30;;;22.80;;
19329;SDS011;9799;48.214;16.388;2024-03-06T05:55:34;30.20;;;20.40;;
19329;SDS011;9799;48.214;16.388;2024-03-06T05:58:57;35.27;;;23.23;;
19329;SDS011;9799;48.214;16.388;2024-03-06T06:02:21;31.07;;;20.33;;
19329;SDS011;9799;48.214;16.388;2024-03-06T06:05:42;32.30;;;21.63;;
19329;SDS011;9799;48.214;16.388;2024-03-06T06:09:03;33.60;;;21.80;;
19329;SDS011;9799;48.214;16.388;2024-03-06T06:12:25;31.47;;;21.53;;
19329;SDS011;9799;48.214;16.388;2024-03-06T06:15:48;31.27;;;20.00;;
19329;SDS011;9799;48.214;16.388;2024-03-06T06:19:09;30.10;;;20.57;;
19329;SDS011;9799;48.214;16.388;2024-03-06T06:22:31;26.93;;;19.60;;
19329;SDS011;9799;48.214;16.388;2024-03-06T06:25:53;33.73;;;20.00;;
19329;SDS011;9799;48.214;16.388;2024-03-06T06:29:15;27.57;;;18.93;;
19329;SDS011;9799;48.214;16.388;2024-03-06T06:32:38;27.60;;;19.43;;
19329;SDS011;9799;48.214;16.388;2024-03-06T06:35:59;28.17;;;19.93;;
19329;SDS011;9799;48.214;16.388;2024-03-06T06:39:21;30.77;;;19.53;;
19329;SDS011;9799;48.214;16.388;2024-03-06T06:42:45;30.07;;;19.93;;
19329;SDS011;9799;48.214;16.388;2024-03-06T06:46:09;29.17;;;19.67;;
19329;SDS011;9799;48.214;16.388;2024-03-06T06:49:31;42.10;;;29.13;;
19329;SDS011;9799;48.214;16.388;2024-03-06T06:52:53;34.57;;;21.33;;
19329;SDS011;9799;48.214;16.388;2024-03-06T06:56:14;31.80;;;19.13;;
19329;SDS011;9799;48.214;16.388;2024-03-06T06:59:35;38.03;;;22.87;;
19329;SDS011;9799;48.214;16.388;2024-03-06T07:02:56;31.87;;;22.13;;
19329;SDS011;9799;48.214;16.388;2024-03-06T07:06:19;33.93;;;21.47;;
19329;SDS011;9799;48.214;16.388;2024-03-06T07:09:41;33.27;;;20.70;;
19329;SDS011;9799;48.214;16.388;2024-03-06T07:13:02;29.13;;;20.33;;
19329;SDS011;9799;48.214;16.388;2024-03-06T07:16:25;32.73;;;21.90;;
19329;SDS011;9799;48.214;16.388;2024-03-06T07:19:46;33.83;;;21.43;;
19329;SDS011;9799;48.214;16.388;2024-03-06T07:23:09;37.27;;;22.47;;
19329;SDS011;9799;48.214;16.388;2024-03-06T07:26:31;30.57;;;20.93;;
19329;SDS011;9799;48.214;16.388;2024-03-06T07:29:53;35.53;;;22.40;;
19329;SDS011;9799;48.214;16.388;2024-03-06T07:33:14;34.13;;;20.47;;
19329;SDS011;9799;48.214;16.388;2024-03-06T07:36:35;32.60;;;22.03;;
19329;SDS011;9799;48.214;16.388;2024-03-06T07:39:58;39.87;;;21.87;;
19329;SDS011;9799;48.214;16.388;2024-03-06T07:43:19;35.63;;;21.33;;
19329;SDS011;9799;48.214;16.388;2024-03-06T07:46:40;34.47;;;20.50;;
19329;SDS011;9799;48.214;16.388;2024-03-06T07:50:02;33.70;;;22.30;;
19329;SDS011;9799;48.214;16.388;2024-03-06T07:53:23;30.57;;;21.50;;
19329;SDS011;9799;48.214;16.388;2024-03-06T07:56:46;31.97;;;21.33;;
19329;SDS011;9799;48.214;16.388;2024-03-06T08:00:08;29.73;;;21.33;;
19329;SDS011;9799;48.214;16.388;2024-03-06T08:03:33;35.87;;;22.30;;
19329;SDS011;9799;48.214;16.388;2024-03-06T08:06:55;29.87;;;21.23;;
19329;SDS011;9799;48.214;16.388;2024-03-06T08:10:16;27.90;;;20.27;;
19329;SDS011;9799;48.214;16.388;2024-03-06T08:13:39;33.23;;;23.53;;
19329;SDS011;9799;48.214;16.388;2024-03-06T08:17:01;31.13;;;22.13;;
19329;SDS011;9799;48.214;16.388;2024-03-06T08:20:22;31.10;;;21.73;;
19329;SDS011;9799;48.214;16.388;2024-03-06T08:23:44;37.33;;;23.57;;
19329;SDS011;9799;48.214;16.388;2024-03-06T08:27:06;32.10;;;22.97;;
19329;SDS011;9799;48.214;16.388;2024-03-06T08:30:29;28.77;;;21.30;;
19329;SDS011;9799;48.214;16.388;2024-03-06T08:33:50;28.93;;;21.57;;
19329;SDS011;9799;48.214;16.388;2024-03-06T08:37:12;28.77;;;21.33;;
19329;SDS011;9799;48.214;16.388;2024-03-06T08:40:33;36.50;;;24.40;;
19329;SDS011;9799;48.214;16.388;2024-03-06T08:43:57;31.27;;;22.77;;
19329;SDS011;9799;48.214;16.388;2024-03-06T08:47:19;38.30;;;26.30;;
19329;SDS011;9799;48.214;16.388;2024-03-06T08:50:40;35.97;;;23.10;;
19329;SDS011;9799;48.214;16.388;2024-03-06T08:54:01;34.70;;;23.77;;
19329;SDS011;9799;48.214;16.388;2024-03-06T08:57:23;36.27;;;23.80;;
19329;SDS011;9799;48.214;16.388;2024-03-06T09:00:47;36.37;;;24.37;;
19329;SDS011;9799;48.214;16.388;2024-03-06T09:04:10;34.40;;;24.17;;
19329;SDS011;9799;48.214;16.388;2024-03-06T09:07:31;36.73;;;24.50;;
19329;SDS011;9799;48.214;16.388;2024-03-06T09:10:56;38.97;;;24.77;;
19329;SDS011;9799;48.214;16.388;2024-03-06T09:14:18;34.37;;;23.63;;
19329;SDS011;9799;48.214;16.388;2024-03-06T09:17:39;35.60;;;23.10;;
19329;SDS011;9799;48.214;16.388;2024-03-06T09:21:02;36.53;;;23.47;;
19329;SDS011;9799;48.214;16.388;2024-03-06T09:24:23;37.57;;;23.97;;
19329;SDS011;9799;48.214;16.388;2024-03-06T09:27:45;43.70;;;23.40;;
19329;SDS011;9799;48.214;16.388;2024-03-06T09:31:06;31.73;;;24.40;;
19329;SDS011;9799;48.214;16.388;2024-03-06T09:34:28;42.13;;;24.43;;
19329;SDS011;9799;48.214;16.388;2024-03-06T09:37:52;34.00;;;23.27;;
19329;SDS011;9799;48.214;16.388;2024-03-06T09:41:16;32.90;;;23.23;;
19329;SDS011;9799;48.214;16.388;2024-03-06T09:44:37;35.87;;;23.77;;
19329;SDS011;9799;48.214;16.388;2024-03-06T09:47:58;34.73;;;24.17;;
19329;SDS011;9799;48.214;16.388;2024-03-06T09:51:20;32.00;;;22.60;;
19329;SDS011;9799;48.214;16.388;2024-03-06T09:54:43;37.67;;;22.70;;
19329;SDS011;9799;48.214;16.388;2024-03-06T09:58:04;37.00;;;21.93;;
19329;SDS011;9799;48.214;16.388;2024-03-06T10:01:25;30.87;;;20.70;;
19329;SDS011;9799;48.214;16.388;2024-03-06T10:04:48;29.77;;;19.77;;
19329;SDS011;9799;48.214;16.388;2024-03-06T10:08:10;28.33;;;19.47;;
19329;SDS011;9799;48.214;16.388;2024-03-06T10:11:32;26.43;;;19.43;;
19329;SDS011;9799;48.214;16.388;2024-03-06T10:14:59;29.30;;;20.17;;
19329;SDS011;9799;48.214;16.388;2024-03-06T10:18:21;26.27;;;19.03;;
19329;SDS011;9799;48.214;16.388;2024-03-06T10:21:47;25.13;;;16.57;;
19329;SDS011;9799;48.214;16.388;2024-03-06T10:25:10;35.07;;;18.20;;
19329;SDS011;9799;48.214;16.388;2024-03-06T10:28:33;24.37;;;18.10;;
19329;SDS011;9799;48.214;16.388;2024-03-06T10:31:54;42.40;;;18.03;;
19329;SDS011;9799;48.214;16.388;2024-03-06T10:35:19;26.90;;;17.53;;
19329;SDS011;9799;48.214;16.388;2024-03-06T10:38:42;23.43;;;15.83;;
19329;SDS011;9799;48.214;16.388;2024-03-06T10:42:06;23.93;;;16.90;;
19329;SDS011;9799;48.214;16.388;2024-03-06T10:45:32;24.13;;;17.70;;
19329;SDS011;9799;48.214;16.388;2024-03-06T10:49:00;25.47;;;17.37;;
19329;SDS011;9799;48.214;16.388;2024-03-06T10:52:22;24.37;;;18.83;;
19329;SDS011;9799;48.214;16.388;2024-03-06T10:55:44;25.13;;;17.93;;
19329;SDS011;9799;48.214;16.388;2024-03-06T10:59:06;23.73;;;16.83;;
19329;SDS011;9799;48.214;16.388;2024-03-06T11:02:29;23.97;;;16.53;;
19329;SDS011;9799;48.214;16.388;2024-03-06T11:05:51;25.07;;;18.27;;
19329;SDS011;9799;48.214;16.388;2024-03-06T11:09:12;24.37;;;16.43;;
19329;SDS011;9799;48.214;16.388;2024-03-06T11:12:35;24.13;;;16.90;;
19329;SDS011;9799;48.214;16.388;2024-03-06T11:15:58;23.70;;;16.83;;
19329;SDS011;9799;48.214;16.388;2024-03-06T11:19:23;23.27;;;16.27;;
19329;SDS011;9799;48.214;16.388;2024-03-06T11:23:03;23.60;;;17.60;;
19329;SDS011;9799;48.214;16.388;2024-03-06T11:26:35;22.17;;;16.37;;
19329;SDS011;9799;48.214;16.388;2024-03-06T11:30:06;21.73;;;16.00;;
19329;SDS011;9799;48.214;16.388;2024-03-06T11:33:35;21.07;;;15.20;;
19329;SDS011;9799;48.214;16.388;2024-03-06T11:36:59;24.63;;;16.00;;
19329;SDS011;9799;48.214;16.388;2024-03-06T11:40:24;24.90;;;15.97;;
19329;SDS011;9799;48.214;16.388;2024-03-06T11:43:46;22.43;;;17.03;;
19329;SDS011;9799;48.214;16.388;2024-03-06T11:47:10;22.83;;;16.80;;
19329;SDS011;9799;48.214;16.388;2024-03-06T11:50:31;29.07;;;18.10;;
19329;SDS011;9799;48.214;16.388;2024-03-06T11:53:53;32.13;;;18.83;;
19329;SDS011;9799;48.214;16.388;2024-03-06T11:57:15;28.37;;;19.57;;
19329;SDS011;9799;48.214;16.388;2024-03-06T12:00:39;27.80;;;19.43;;
19329;SDS011;9799;48.214;16.388;2024-03-06T12:04:04;26.57;;;19.03;;
19329;SDS011;9799;48.214;16.388;2024-03-06T12:07:26;28.53;;;20.20;;
19329;SDS011;9799;48.214;16.388;2024-03-06T12:10:49;36.47;;;20.57;;
19329;SDS011;9799;48.214;16.388;2024-03-06T12:14:14;25.90;;;19.87;;
19329;SDS011;9799;48.214;16.388;2024-03-06T12:17:41;44.17;;;33.50;;
19329;SDS011;9799;48.214;16.388;2024-03-06T12:21:05;28.70;;;20.97;;
19329;SDS011;9799;48.214;16.388;2024-03-06T12:24:27;29.50;;;22.07;;
19329;SDS011;9799;48.214;16.388;2024-03-06T12:27:50;28.80;;;21.27;;
19329;SDS011;9799;48.214;16.388;2024-03-06T12:31:14;26.70;;;20.77;;
19329;SDS011;9799;48.214;16.388;2024-03-06T12:34:36;52.57;;;45.97;;
19329;SDS011;9799;48.214;16.388;2024-03-06T12:37:57;30.57;;;21.43;;
19329;SDS011;9799;48.214;16.388;2024-03-06T12:41:18;31.97;;;21.40;;
19329;SDS011;9799;48.214;16.388;2024-03-06T12:44:41;25.77;;;20.07;;
19329;SDS011;9799;48.214;16.388;2024-03-06T12:48:02;26.10;;;20.13;;
19329;SDS011;9799;48.214;16.388;2024-03-06T12:51:25;27.73;;;20.77;;
19329;SDS011;9799;48.214;16.388;2024-03-06T12:54:46;23.80;;;19.67;;
19329;SDS011;9799;48.214;16.388;2024-03-06T12:58:09;26.10;;;19.80;;
19329;SDS011;9799;48.214;16.388;2024-03-06T13:01:31;21.20;;;17.73;;
19329;SDS011;9799;48.214;16.388;2024-03-06T13:04:53;31.47;;;20.07;;
19329;SDS011;9799;48.214;16.388;2024-03-06T13:08:14;24.63;;;19.10;;
19329;SDS011;9799;48.214;16.388;2024-03-06T13:11:35;27.70;;;19.93;;
19329;SDS011;9799;48.214;16.388;2024-03-06T13:14:57;26.10;;;19.20;;
19329;SDS011;9799;48.214;16.388;2024-03-06T13:18:20;26.27;;;18.13;;
19329;SDS011;9799;48.214;16.388;2024-03-06T13:21:41;26.30;;;18.53;;
19329;SDS011;9799;48.214;16.388;2024-03-06T13:25:02;24.70;;;17.43;;
19329;SDS011;9799;48.214;16.388;2024-03-06T13:28:24;27.07;;;19.70;;
19329;SDS011;9799;48.214;16.388;2024-03-06T13:31:46;25.03;;;18.97;;
19329;SDS011;9799;48.214;16.388;2024-03-06T13:35:09;25.57;;;18.93;;
19329;SDS011;9799;48.214;16.388;2024-03-06T13:38:32;26.17;;;18.03;;
19329;SDS011;9799;48.214;16.388;2024-03-06T13:41:53;28.77;;;18.43;;
19329;SDS011;9799;48.214;16.388;2024-03-06T13:45:15;43.37;;;21.07;;
19329;SDS011;9799;48.214;16.388;2024-03-06T13:48:37;27.10;;;20.27;;
19329;SDS011;9799;48.214;16.388;2024-03-06T13:51:59;25.40;;;19.47;;
19329;SDS011;9799;48.214;16.388;2024-03-06T13:55:20;28.93;;;19.30;;
19329;SDS011;9799;48.214;16.388;2024-03-06T13:58:42;26.60;;;19.30;;
19329;SDS011;9799;48.214;16.388;2024-03-06T14:02:03;27.40;;;19.60;;
19329;SDS011;9799;48.214;16.388;2024-03-06T14:05:24;24.07;;;18.77;;
19329;SDS011;9799;48.214;16.388;2024-03-06T14:08:48;26.53;;;18.23;;
19329;SDS011;9799;48.214;16.388;2024-03-06T14:12:09;26.57;;;19.17;;
19329;SDS011;9799;48.214;16.388;2024-03-06T14:15:30;24.93;;;19.83;;
19329;SDS011;9799;48.214;16.388;2024-03-06T14:18:52;23.40;;;16.43;;
19329;SDS011;9799;48.214;16.388;2024-03-06T14:22:15;23.97;;;16.97;;
19329;SDS011;9799;48.214;16.388;2024-03-06T14:25:38;20.93;;;15.97;;
19329;SDS011;9799;48.214;16.388;2024-03-06T14:28:59;22.27;;;16.80;;
19329;SDS011;9799;48.214;16.388;2024-03-06T14:32:21;33.07;;;17.57;;
19329;SDS011;9799;48.214;16.388;2024-03-06T14:35:42;23.03;;;17.40;;
19329;SDS011;9799;48.214;16.388;2024-03-06T14:39:05;24.63;;;17.37;;
19329;SDS011;9799;48.214;16.388;2024-03-06T14:42:28;23.37;;;17.27;;
19329;SDS011;9799;48.214;16.388;2024-03-06T14:45:49;22.90;;;17.00;;
19329;SDS011;9799;48.214;16.388;2024-03-06T14:49:10;21.07;;;16.23;;
19329;SDS011;9799;48.214;16.388;2024-03-06T14:52:31;20.63;;;16.07;;
19329;SDS011;9799;48.214;16.388;2024-03-06T14:55:54;25.67;;;15.83;;
19329;SDS011;9799;48.214;16.388;2024-03-06T14:59:16;26.57;;;17.10;;
19329;SDS011;9799;48.214;16.388;2024-03-06T15:02:39;22.00;;;16.60;;
19329;SDS011;9799;48.214;16.388;2024-03-06T15:06:00;23.30;;;17.30;;
19329;SDS011;9799;48.214;16.388;2024-03-06T15:09:22;21.03;;;15.73;;
19329;SDS011;9799;48.214;16.388;2024-03-06T15:12:45;22.23;;;15.67;;
19329;SDS011;9799;48.214;16.388;2024-03-06T15:16:08;24.00;;;14.87;;
19329;SDS011;9799;48.214;16.388;2024-03-06T15:19:29;22.40;;;15.77;;
19329;SDS011;9799;48.214;16.388;2024-03-06T15:22:50;22.30;;;14.23;;
19329;SDS011;9799;48.214;16.388;2024-03-06T15:26:12;19.50;;;14.20;;
19329;SDS011;9799;48.214;16.388;2024-03-06T15:29:33;19.80;;;13.63;;
19329;SDS011;9799;48.214;16.388;2024-03-06T15:32:56;22.37;;;14.17;;
19329;SDS011;9799;48.214;16.388;2024-03-06T15:36:17;19.30;;;14.73;;
19329;SDS011;9799;48.214;16.388;2024-03-06T15:39:40;22.87;;;15.60;;
19329;SDS011;9799;48.214;16.388;2024-03-06T15:43:01;21.27;;;15.53;;
19329;SDS011;9799;48.214;16.388;2024-03-06T15:46:23;19.67;;;14.50;;
19329;SDS011;9799;48.214;16.388;2024-03-06T15:49:47;20.13;;;14.47;;
19329;SDS011;9799;48.214;16.388;2024-03-06T15:53:08;22.00;;;16.40;;
19329;SDS011;9799;48.214;16.388;2024-03-06T15:56:31;20.93;;;15.33;;
19329;SDS011;9799;48.214;16.388;2024-03-06T15:59:52;21.07;;;15.60;;
19329;SDS011;9799;48.214;16.388;2024-03-06T16:03:13;23.17;;;16.63;;
19329;SDS011;9799;48.214;16.388;2024-03-06T16:06:36;26.13;;;15.70;;
19329;SDS011;9799;48.214;16.388;2024-03-06T16:09:57;25.27;;;16.43;;
19329;SDS011;9799;48.214;16.388;2024-03-06T16:13:18;22.07;;;15.40;;
19329;SDS011;9799;48.214;16.388;2024-03-06T16:16:39;21.70;;;15.83;;
19329;SDS011;9799;48.214;16.388;2024-03-06T16:20:01;21.93;;;15.77;;
19329;SDS011;9799;48.214;16.388;2024-03-06T16:23:25;21.73;;;16.27;;
19329;SDS011;9799;48.214;16.388;2024-03-06T16:26:46;24.57;;;16.37;;
19329;SDS011;9799;48.214;16.388;2024-03-06T16:30:09;26.07;;;16.50;;
19329;SDS011;9799;48.214;16.388;2024-03-06T16:33:31;24.50;;;17.70;;
19329;SDS011;9799;48.214;16.388;2024-03-06T16:36:52;28.53;;;17.63;;
19329;SDS011;9799;48.214;16.388;2024-03-06T16:40:15;23.70;;;17.73;;
19329;SDS011;9799;48.214;16.388;2024-03-06T16:43:36;26.00;;;18.13;;
19329;SDS011;9799;48.214;16.388;2024-03-06T16:46:57;23.70;;;17.60;;
19329;SDS011;9799;48.214;16.388;2024-03-06T16:50:18;28.20;;;18.37;;
19329;SDS011;9799;48.214;16.388;2024-03-06T16:53:39;26.63;;;18.30;;
19329;SDS011;9799;48.214;16.388;2024-03-06T16:57:02;22.23;;;16.53;;
19329;SDS011;9799;48.214;16.388;2024-03-06T17:00:24;25.83;;;17.03;;
19329;SDS011;9799;48.214;16.388;2024-03-06T17:03:45;24.97;;;18.00;;
19329;SDS011;9799;48.214;16.388;2024-03-06T17:07:06;28.70;;;17.77;;
19329;SDS011;9799;48.214;16.388;2024-03-06T17:10:28;24.33;;;18.07;;
19329;SDS011;9799;48.214;16.388;2024-03-06T17:13:51;24.10;;;17.43;;
19329;SDS011;9799;48.214;16.388;2024-03-06T17:17:12;23.77;;;17.03;;
19329;SDS011;9799;48.214;16.388;2024-03-06T17:20:34;24.53;;;18.33;;
19329;SDS011;9799;48.214;16.388;2024-03-06T17:23:55;25.17;;;17.17;;
19329;SDS011;9799;48.214;16.388;2024-03-06T17:27:16;24.90;;;18.17;;
19329;SDS011;9799;48.214;16.388;2024-03-06T17:30:38;27.90;;;16.90;;
19329;SDS011;9799;48.214;16.388;2024-03-06T17:34:00;26.07;;;17.60;;
19329;SDS011;9799;48.214;16.388;2024-03-06T17:37:21;25.87;;;18.83;;
19329;SDS011;9799;48.214;16.388;2024-03-06T17:40:43;23.77;;;17.77;;
19329;SDS011;9799;48.214;16.388;2024-03-06T17:44:04;24.63;;;16.73;;
19329;SDS011;9799;48.214;16.388;2024-03-06T17:47:27;23.60;;;17.80;;
19329;SDS011;9799;48.214;16.388;2024-03-06T17:50:48;23.37;;;17.37;;
19329;SDS011;9799;48.214;16.388;2024-03-06T17:54:09;26.97;;;17.83;;
19329;SDS011;9799;48.214;16.388;2024-03-06T17:57:34;27.67;;;18.50;;
19329;SDS011;9799;48.214;16.388;2024-03-06T18:00:55;22.40;;;16.73;;
19329;SDS011;9799;48.214;16.388;2024-03-06T18:04:19;29.27;;;18.37;;
19329;SDS011;9799;48.214;16.388;2024-03-06T18:07:41;27.27;;;18.57;;
19329;SDS011;9799;48.214;16.388;2024-03-06T18:11:03;26.93;;;18.10;;
19329;SDS011;9799;48.214;16.388;2024-03-06T18:14:24;27.70;;;18.03;;
19329;SDS011;9799;48.214;16.388;2024-03-06T18:17:45;25.97;;;18.23;;
19329;SDS011;9799;48.214;16.388;2024-03-06T18:21:08;26.53;;;18.83;;
19329;SDS011;9799;48.214;16.388;2024-03-06T18:24:29;28.53;;;19.90;;
19329;SDS011;9799;48.214;16.388;2024-03-06T18:27:50;26.40;;;18.67;;
19329;SDS011;9799;48.214;16.388;2024-03-06T18:31:12;30.60;;;19.83;;
19329;SDS011;9799;48.214;16.388;2024-03-06T18:34:36;26.87;;;19.57;;
19329;SDS011;9799;48.214;16.388;2024-03-06T18:37:59;27.53;;;19.00;;
19329;SDS011;9799;48.214;16.388;2024-03-06T18:41:20;27.27;;;20.23;;
19329;SDS011;9799;48.214;16.388;2024-03-06T18:44:41;27.07;;;19.17;;
19329;SDS011;9799;48.214;16.388;2024-03-06T18:48:03;23.57;;;18.20;;
19329;SDS011;9799;48.214;16.388;2024-03-06T18:51:25;28.47;;;17.63;;
19329;SDS011;9799;48.214;16.388;2024-03-06T18:54:48;23.53;;;17.20;;
19329;SDS011;9799;48.214;16.388;2024-03-06T18:58:09;24.37;;;18.00;;
19329;SDS011;9799;48.214;16.388;2024-03-06T19:01:31;24.03;;;19.20;;
19329;SDS011;9799;48.214;16.388;2024-03-06T19:04:52;26.50;;;19.87;;
19329;SDS011;9799;48.214;16.388;2024-03-06T19:08:13;23.27;;;17.70;;
19329;SDS011;9799;48.214;16.388;2024-03-06T19:11:36;22.80;;;18.07;;
19329;SDS011;9799;48.214;16.388;2024-03-06T19:14:57;23.03;;;17.93;;
19329;SDS011;9799;48.214;16.388;2024-03-06T19:18:18;23.53;;;17.07;;
19329;SDS011;9799;48.214;16.388;2024-03-06T19:21:39;24.33;;;17.67;;
19329;SDS011;9799;48.214;16.388;2024-03-06T19:25:01;23.17;;;18.03;;
19329;SDS011;9799;48.214;16.388;2024-03-06T19:28:24;18.03;;;15.57;;
19329;SDS011;9799;48.214;16.388;2024-03-06T19:31:45;20.20;;;16.17;;
19329;SDS011;9799;48.214;16.388;2024-03-06T19:35:07;19.20;;;15.90;;
19329;SDS011;9799;48.214;16.388;2024-03-06T19:38:29;17.43;;;14.33;;
19329;SDS011;9799;48.214;16.388;2024-03-06T19:41:51;21.13;;;16.00;;